Due to severe server failure at the provider, not all demo sites are operational. Will take some days to rebuilt everything.

Demonstration site - Click on the  for more information

There are no active watches, warnings or advisories



My webcam more information My webcam


Thunder radar more information blitzortung!


Rain radar more information rain snow radar


Visit our other weather sites:

Template documentation
and downloads

And another site


You find our weather info also at:

UK Metoffice

Weather Underground

AWEKAS

WeatherlinkIP

Citizen Weather Observer Program (CWOP)

HAMweather, WeatherForYou, PWS Weather



Nearby METAR Reports

   
KAVP - Albrightsville, PA
Updated: Nov 25 2020 11:06 pm
Light Rain, Overcast  
Light Rain, Overcast  
   Wind: NW 5.8 mph
Wind: NW 5.8 mph
Temperature: 48.2°F
Wind Chill: 46.4°F
Dew Point: 42.8°F
Humidity: 82%
Barometer: 30.09 inHg
Clouds: Overcast
Visibility: 10 mi
Cloud details: Overcast 2900 ft
KAVP 260406Z AUTO 31005KT 10SM -RA OVC029 09/06 A3009 RMK AO2 P0000 T00940056
KIWA - Apache Junction, AZ
Updated: Nov 25 2020 10:50 pm
Clear  
Clear  
   Wind: East 4.6 mph
Wind: East 4.6 mph
Temperature: 51.8°F
Dew Point: 19.4°F
Humidity: 28%
Barometer: 30.03 inHg
Clouds: Clear
Visibility: 10 mi
Cloud details: Clear ft
KIWA 260350Z 10004KT 10SM SKC 11/M07 A3003
KPKB - Blue Rock, OH
Updated: Nov 25 2020 10:53 pm
Overcast  
Overcast  
   Wind: South 10.4 mph
Wind: South 10.4 mph
Temperature: 60.8°F
Dew Point: 48.2°F
Humidity: 63%
Barometer: 29.84 inHg
Clouds: Overcast
Visibility: 10 mi
Cloud details: Few Clouds 5000 ft,
Mostly Cloudy 7000 ft,
Overcast 8500 ft
KPKB 260353Z 18009KT 10SM FEW050 BKN070 OVC085 16/09 A2984 RMK AO2 SLP103 T01560094
KHVN - Branford, CT
Updated: Nov 25 2020 10:53 pm
Overcast  
Overcast  
   Wind: South 4.6 mph
Wind: South 4.6 mph
Temperature: 51.8°F
Dew Point: 48.2°F
Humidity: 88%
Barometer: 30.2 inHg
Clouds: Overcast
Visibility: 10 mi
Cloud details: Partly Cloudy 5000 ft,
Mostly Cloudy 5500 ft,
Overcast 9000 ft
KHVN 260353Z AUTO 19004KT 10SM SCT050 BKN055 OVC090 11/09 A3020 RMK AO2 SLP227 T01110089
KPHX - Carefree, AZ
Updated: Nov 25 2020 10:51 pm
Clear  
Clear  
   Wind: Calm
Wind: Calm
Temperature: 60.8°F
Dew Point: 23°F
Humidity: 23%
Barometer: 29.99 inHg
Clouds: Clear
Visibility: 10 mi
Cloud details: Clear ft
KPHX 260351Z 00000KT 10SM CLR 16/M05 A2999 RMK AO2 SLP150 T01561050
 

Script developed by  Saratoga-weather.org Adapted for the template by  Weerstation Leuven

Equipment we use:

Weather-station
Davis VP2

Weather-program
VWS

Weather-server
My Computer

Provider
Robohost

Davis VP2

VWS

My Computer

Robohost

This is an optional block. Switch it on/off in your settings-file: $SITE['bannerTop'] = false; or $SITE['bannerBottom'] = false;

You can display ads, any other important text or photo’s using text / html or PHP code.

You can place one or more at the top and or bottom and it can all be different for content / size .